ANZ403 NZWN-NZQN
Flight info
| Callsign | ANZ403 |
|---|---|
| Flight time | 1h 6m |
| Altitude | 36000 |
| Route | SABDA Y622 MESIX H159 CH Y266 ELRUV |
| Aircraft | A320/M-SDE3FGHIRWY/LB1 |
Departure
| Time | 2026-04-28 12:48 |
|---|---|
| Airport | Wellington International Airport (NZWN) |
Arrival
| Time | 2026-04-28 13:54 |
|---|---|
| Airport | Queenstown Airport (NZQN) |
| Time | Latitude | Longitude | Altitude | Speed | Heading |
|---|---|---|---|---|---|
| 2026-04-28 12:37 | -41.32983 | 174.80974 | 26 ft | 0 kts | 158° |
| 2026-04-28 12:39 | -41.32977 | 174.80971 | 26 ft | 2 kts | 159° |
| 2026-04-28 12:40 | -41.32958 | 174.80963 | 26 ft | 3 kts | 165° |
| 2026-04-28 12:40 | -41.32939 | 174.80956 | 26 ft | 3 kts | 165° |
| 2026-04-28 12:40 | -41.32920 | 174.80951 | 26 ft | 3 kts | 185° |
| 2026-04-28 12:40 | -41.32902 | 174.80957 | 26 ft | 2 kts | 220° |
| 2026-04-28 12:41 | -41.32897 | 174.80962 | 26 ft | 0 kts | 226° |
| 2026-04-28 12:44 | -41.32899 | 174.80959 | 26 ft | 2 kts | 226° |
| 2026-04-28 12:44 | -41.32911 | 174.80934 | 26 ft | 5 kts | 251° |
| 2026-04-28 12:44 | -41.32918 | 174.80890 | 26 ft | 5 kts | 240° |
| 2026-04-28 12:44 | -41.32956 | 174.80873 | 26 ft | 7 kts | 202° |
| 2026-04-28 12:45 | -41.32977 | 174.80807 | 26 ft | 9 kts | 237° |
| 2026-04-28 12:45 | -41.33041 | 174.80793 | 26 ft | 11 kts | 182° |
| 2026-04-28 12:45 | -41.33125 | 174.80788 | 26 ft | 13 kts | 183° |
| 2026-04-28 12:45 | -41.33224 | 174.80782 | 26 ft | 15 kts | 182° |
| 2026-04-28 12:46 | -41.33339 | 174.80776 | 26 ft | 17 kts | 182° |
| 2026-04-28 12:46 | -41.33463 | 174.80768 | 26 ft | 17 kts | 182° |
| 2026-04-28 12:46 | -41.33537 | 174.80756 | 26 ft | 10 kts | 202° |
| 2026-04-28 12:46 | -41.33578 | 174.80672 | 26 ft | 11 kts | 267° |
| 2026-04-28 12:47 | -41.33541 | 174.80633 | 26 ft | 0 kts | 3° |
| 2026-04-28 12:47 | -41.33534 | 174.80633 | 26 ft | 6 kts | 3° |
| 2026-04-28 12:47 | -41.33268 | 174.80653 | 29 ft | 76 kts | 2° |
| 2026-04-28 12:47 | -41.32526 | 174.80716 | 40 ft | 134 kts | 8° |
| 2026-04-28 12:48 | -41.31571 | 174.80811 | 649 ft | 138 kts | 6° |
| 2026-04-28 12:48 | -41.30615 | 174.80872 | 1411 ft | 137 kts | 3° |
| 2026-04-28 12:48 | -41.29668 | 174.80921 | 2150 ft | 134 kts | 1° |
| 2026-04-28 12:48 | -41.28724 | 174.80987 | 2673 ft | 138 kts | 1° |
| 2026-04-28 12:49 | -41.27762 | 174.81042 | 3205 ft | 139 kts | 357° |
| 2026-04-28 12:49 | -41.26785 | 174.80897 | 3545 ft | 151 kts | 337° |
| 2026-04-28 12:49 | -41.25728 | 174.80402 | 3834 ft | 170 kts | 340° |
| 2026-04-28 12:49 | -41.24528 | 174.79952 | 4155 ft | 187 kts | 341° |
| 2026-04-28 12:50 | -41.23182 | 174.79486 | 4524 ft | 207 kts | 341° |
| 2026-04-28 12:50 | -41.21787 | 174.79001 | 5329 ft | 208 kts | 341° |
| 2026-04-28 12:50 | -41.20517 | 174.78106 | 5962 ft | 212 kts | 309° |
| 2026-04-28 12:50 | -41.19814 | 174.76314 | 6387 ft | 232 kts | 286° |
| 2026-04-28 12:51 | -41.19763 | 174.74103 | 6830 ft | 253 kts | 253° |
| 2026-04-28 12:51 | -41.20781 | 174.72157 | 7521 ft | 269 kts | 219° |
| 2026-04-28 12:51 | -41.22506 | 174.71064 | 8284 ft | 280 kts | 202° |
| 2026-04-28 12:51 | -41.24377 | 174.70325 | 9202 ft | 282 kts | 198° |
| 2026-04-28 12:52 | -41.26286 | 174.69662 | 10047 ft | 285 kts | 198° |
| 2026-04-28 12:52 | -41.28225 | 174.68983 | 10659 ft | 296 kts | 198° |
| 2026-04-28 12:52 | -41.30280 | 174.68221 | 10878 ft | 318 kts | 199° |
| 2026-04-28 12:52 | -41.32482 | 174.67360 | 11048 ft | 341 kts | 199° |
| 2026-04-28 12:53 | -41.34810 | 174.66417 | 11396 ft | 356 kts | 200° |
| 2026-04-28 12:53 | -41.37192 | 174.65428 | 12000 ft | 361 kts | 200° |
| 2026-04-28 12:53 | -41.39599 | 174.64417 | 12663 ft | 365 kts | 200° |
| 2026-04-28 12:53 | -41.41207 | 174.63739 | 13114 ft | 367 kts | 200° |
| 2026-04-28 12:54 | -41.44483 | 174.62352 | 14013 ft | 372 kts | 200° |
| 2026-04-28 12:54 | -41.46957 | 174.61303 | 14603 ft | 375 kts | 200° |
| 2026-04-28 12:54 | -41.49456 | 174.60248 | 15162 ft | 378 kts | 200° |
| 2026-04-28 12:54 | -41.51971 | 174.59189 | 15728 ft | 381 kts | 200° |
| 2026-04-28 12:55 | -41.54512 | 174.58118 | 16300 ft | 384 kts | 200° |
| 2026-04-28 12:55 | -41.57069 | 174.57034 | 16865 ft | 387 kts | 200° |
| 2026-04-28 12:55 | -41.59646 | 174.55939 | 17413 ft | 391 kts | 199° |
| 2026-04-28 12:55 | -41.62250 | 174.54835 | 17959 ft | 394 kts | 199° |
| 2026-04-28 12:56 | -41.64877 | 174.53719 | 18504 ft | 398 kts | 198° |
| 2026-04-28 12:56 | -41.67534 | 174.52590 | 18999 ft | 402 kts | 198° |
| 2026-04-28 12:56 | -41.70210 | 174.51455 | 19504 ft | 405 kts | 198° |
| 2026-04-28 12:56 | -41.72907 | 174.50306 | 20024 ft | 408 kts | 198° |
| 2026-04-28 12:57 | -41.75618 | 174.49149 | 20555 ft | 410 kts | 197° |
| 2026-04-28 12:57 | -41.78285 | 174.47772 | 21036 ft | 413 kts | 206° |
| 2026-04-28 12:57 | -41.80658 | 174.45506 | 21495 ft | 417 kts | 222° |
| 2026-04-28 12:57 | -41.82762 | 174.42822 | 21961 ft | 419 kts | 223° |
| 2026-04-28 12:58 | -41.84895 | 174.40142 | 22426 ft | 421 kts | 221° |
| 2026-04-28 12:58 | -41.87085 | 174.37515 | 22871 ft | 424 kts | 220° |
| 2026-04-28 12:58 | -41.89334 | 174.34945 | 23312 ft | 426 kts | 219° |
| 2026-04-28 12:58 | -41.91633 | 174.32416 | 23756 ft | 428 kts | 218° |
| 2026-04-28 12:59 | -41.93955 | 174.29903 | 24128 ft | 430 kts | 218° |
| 2026-04-28 12:59 | -41.96296 | 174.27378 | 24493 ft | 432 kts | 218° |
| 2026-04-28 12:59 | -41.98639 | 174.24833 | 24854 ft | 434 kts | 218° |
| 2026-04-28 12:59 | -42.00983 | 174.22264 | 25213 ft | 436 kts | 218° |
| 2026-04-28 13:00 | -42.03333 | 174.19667 | 25558 ft | 439 kts | 218° |
| 2026-04-28 13:00 | -42.05689 | 174.17043 | 25911 ft | 441 kts | 218° |
| 2026-04-28 13:00 | -42.08057 | 174.14400 | 26264 ft | 443 kts | 218° |
| 2026-04-28 13:00 | -42.10437 | 174.11740 | 26617 ft | 446 kts | 219° |
| 2026-04-28 13:01 | -42.12826 | 174.09065 | 26948 ft | 448 kts | 219° |
| 2026-04-28 13:01 | -42.15231 | 174.06372 | 27293 ft | 450 kts | 218° |
| 2026-04-28 13:01 | -42.17644 | 174.03673 | 27670 ft | 451 kts | 218° |
| 2026-04-28 13:01 | -42.20058 | 174.00979 | 28195 ft | 449 kts | 218° |
| 2026-04-28 13:02 | -42.22460 | 173.98296 | 28745 ft | 447 kts | 218° |
| 2026-04-28 13:02 | -42.24847 | 173.95624 | 29283 ft | 445 kts | 218° |
| 2026-04-28 13:02 | -42.27227 | 173.92951 | 29822 ft | 444 kts | 218° |
| 2026-04-28 13:02 | -42.29592 | 173.90290 | 30354 ft | 442 kts | 218° |
| 2026-04-28 13:03 | -42.31952 | 173.87639 | 30806 ft | 441 kts | 218° |
| 2026-04-28 13:03 | -42.34307 | 173.84999 | 31246 ft | 439 kts | 218° |
| 2026-04-28 13:03 | -42.36657 | 173.82365 | 31683 ft | 438 kts | 218° |
| 2026-04-28 13:03 | -42.39000 | 173.79731 | 32122 ft | 437 kts | 218° |
| 2026-04-28 13:04 | -42.41331 | 173.77100 | 32564 ft | 436 kts | 218° |
| 2026-04-28 13:04 | -42.42905 | 173.75320 | 32847 ft | 436 kts | 218° |
| 2026-04-28 13:04 | -42.45225 | 173.72686 | 33288 ft | 435 kts | 218° |
| 2026-04-28 13:04 | -42.47541 | 173.70051 | 33731 ft | 434 kts | 218° |
| 2026-04-28 13:05 | -42.49854 | 173.67426 | 34161 ft | 434 kts | 218° |
| 2026-04-28 13:05 | -42.52168 | 173.64805 | 34549 ft | 433 kts | 218° |
| 2026-04-28 13:05 | -42.54477 | 173.62191 | 34919 ft | 432 kts | 218° |
| 2026-04-28 13:05 | -42.56782 | 173.59581 | 35271 ft | 431 kts | 218° |
| 2026-04-28 13:06 | -42.59081 | 173.56972 | 35627 ft | 430 kts | 218° |
| 2026-04-28 13:06 | -42.61374 | 173.54369 | 35976 ft | 430 kts | 218° |
| 2026-04-28 13:06 | -42.63665 | 173.51763 | 36207 ft | 430 kts | 218° |
| 2026-04-28 13:07 | -42.68294 | 173.46489 | 36256 ft | 438 kts | 218° |
| 2026-04-28 13:07 | -42.72966 | 173.41147 | 36256 ft | 440 kts | 218° |
| 2026-04-28 13:08 | -42.77640 | 173.35782 | 36254 ft | 440 kts | 218° |
| 2026-04-28 13:08 | -42.82318 | 173.30405 | 36254 ft | 440 kts | 218° |
| 2026-04-28 13:09 | -42.86997 | 173.25030 | 36255 ft | 440 kts | 218° |
| 2026-04-28 13:09 | -42.91672 | 173.19650 | 36253 ft | 440 kts | 219° |
| 2026-04-28 13:10 | -42.96342 | 173.14255 | 36250 ft | 440 kts | 219° |
| 2026-04-28 13:10 | -43.01042 | 173.08817 | 36250 ft | 440 kts | 219° |
| 2026-04-28 13:11 | -43.05719 | 173.03417 | 36253 ft | 440 kts | 218° |
| 2026-04-28 13:11 | -43.10403 | 172.98032 | 36249 ft | 440 kts | 218° |
| 2026-04-28 13:12 | -43.15083 | 172.92641 | 36249 ft | 440 kts | 218° |
| 2026-04-28 13:12 | -43.19761 | 172.87234 | 36248 ft | 440 kts | 219° |
| 2026-04-28 13:13 | -43.24434 | 172.81818 | 36243 ft | 440 kts | 219° |
| 2026-04-28 13:13 | -43.29103 | 172.76382 | 36233 ft | 440 kts | 219° |
| 2026-04-28 13:14 | -43.33771 | 172.70941 | 36229 ft | 440 kts | 219° |
| 2026-04-28 13:14 | -43.38437 | 172.65499 | 36224 ft | 440 kts | 219° |
| 2026-04-28 13:15 | -43.43106 | 172.60048 | 36218 ft | 440 kts | 219° |
| 2026-04-28 13:15 | -43.47766 | 172.54584 | 36220 ft | 440 kts | 219° |
| 2026-04-28 13:16 | -43.51781 | 172.48224 | 36219 ft | 443 kts | 237° |
| 2026-04-28 13:16 | -43.54880 | 172.40868 | 36218 ft | 444 kts | 238° |
| 2026-04-28 13:17 | -43.57986 | 172.33507 | 36222 ft | 444 kts | 238° |
| 2026-04-28 13:17 | -43.61091 | 172.26146 | 36228 ft | 444 kts | 238° |
| 2026-04-28 13:18 | -43.64186 | 172.18767 | 36236 ft | 444 kts | 238° |
| 2026-04-28 13:18 | -43.67293 | 172.11329 | 36238 ft | 444 kts | 238° |
| 2026-04-28 13:19 | -43.70367 | 172.03928 | 36241 ft | 444 kts | 238° |
| 2026-04-28 13:19 | -43.73443 | 171.96521 | 36240 ft | 444 kts | 238° |
| 2026-04-28 13:20 | -43.76519 | 171.89119 | 36243 ft | 444 kts | 238° |
| 2026-04-28 13:20 | -43.79594 | 171.81704 | 36244 ft | 444 kts | 238° |
| 2026-04-28 13:21 | -43.82653 | 171.74284 | 36245 ft | 444 kts | 239° |
| 2026-04-28 13:21 | -43.85731 | 171.66873 | 36245 ft | 444 kts | 238° |
| 2026-04-28 13:22 | -43.88883 | 171.59519 | 36243 ft | 443 kts | 237° |
| 2026-04-28 13:22 | -43.92045 | 171.52174 | 36242 ft | 444 kts | 238° |
| 2026-04-28 13:23 | -43.95179 | 171.44807 | 36244 ft | 444 kts | 238° |
| 2026-04-28 13:23 | -43.98300 | 171.37416 | 36241 ft | 444 kts | 238° |
| 2026-04-28 13:24 | -44.01417 | 171.30019 | 36244 ft | 444 kts | 238° |
| 2026-04-28 13:24 | -44.04533 | 171.22616 | 36245 ft | 444 kts | 238° |
| 2026-04-28 13:25 | -44.07651 | 171.15205 | 36244 ft | 444 kts | 238° |
| 2026-04-28 13:25 | -44.10768 | 171.07786 | 36245 ft | 444 kts | 238° |
| 2026-04-28 13:26 | -44.13901 | 171.00309 | 36244 ft | 444 kts | 238° |
| 2026-04-28 13:26 | -44.17004 | 170.92865 | 36249 ft | 445 kts | 238° |
| 2026-04-28 13:27 | -44.20098 | 170.85408 | 36251 ft | 445 kts | 239° |
| 2026-04-28 13:27 | -44.23192 | 170.77937 | 36255 ft | 445 kts | 239° |
| 2026-04-28 13:28 | -44.26275 | 170.70464 | 36269 ft | 444 kts | 239° |
| 2026-04-28 13:28 | -44.29355 | 170.62996 | 36275 ft | 444 kts | 239° |
| 2026-04-28 13:29 | -44.32433 | 170.55519 | 36277 ft | 444 kts | 239° |
| 2026-04-28 13:29 | -44.35504 | 170.48039 | 36286 ft | 444 kts | 239° |
| 2026-04-28 13:30 | -44.38564 | 170.40542 | 36284 ft | 444 kts | 239° |
| 2026-04-28 13:30 | -44.41620 | 170.33037 | 36284 ft | 444 kts | 239° |
| 2026-04-28 13:31 | -44.46200 | 170.21787 | 36291 ft | 443 kts | 239° |
| 2026-04-28 13:31 | -44.49243 | 170.14284 | 36297 ft | 443 kts | 239° |
| 2026-04-28 13:32 | -44.52280 | 170.06776 | 36299 ft | 442 kts | 239° |
| 2026-04-28 13:32 | -44.55304 | 169.99274 | 36302 ft | 442 kts | 240° |
| 2026-04-28 13:33 | -44.58334 | 169.91738 | 36139 ft | 438 kts | 240° |
| 2026-04-28 13:33 | -44.59814 | 169.88050 | 35887 ft | 429 kts | 240° |
| 2026-04-28 13:33 | -44.61241 | 169.84483 | 35643 ft | 422 kts | 240° |
| 2026-04-28 13:34 | -44.62686 | 169.80865 | 35356 ft | 418 kts | 240° |
| 2026-04-28 13:34 | -44.64111 | 169.77296 | 34741 ft | 420 kts | 240° |
| 2026-04-28 13:34 | -44.65525 | 169.73746 | 34435 ft | 414 kts | 240° |
| 2026-04-28 13:34 | -44.66927 | 169.70229 | 33965 ft | 411 kts | 240° |
| 2026-04-28 13:35 | -44.68321 | 169.66735 | 33510 ft | 408 kts | 240° |
| 2026-04-28 13:35 | -44.69724 | 169.63207 | 32229 ft | 423 kts | 240° |
| 2026-04-28 13:35 | -44.71181 | 169.59534 | 31065 ft | 436 kts | 241° |
| 2026-04-28 13:35 | -44.72670 | 169.55777 | 30109 ft | 442 kts | 241° |
| 2026-04-28 13:36 | -44.74170 | 169.51989 | 29135 ft | 445 kts | 241° |
| 2026-04-28 13:36 | -44.75680 | 169.48179 | 28168 ft | 447 kts | 241° |
| 2026-04-28 13:36 | -44.76682 | 169.45645 | 27528 ft | 448 kts | 242° |
| 2026-04-28 13:36 | -44.78195 | 169.41806 | 26551 ft | 449 kts | 242° |
| 2026-04-28 13:37 | -44.79709 | 169.37952 | 25574 ft | 451 kts | 242° |
| 2026-04-28 13:37 | -44.81189 | 169.34067 | 24736 ft | 448 kts | 246° |
| 2026-04-28 13:37 | -44.82309 | 169.30004 | 24003 ft | 442 kts | 253° |
| 2026-04-28 13:37 | -44.83229 | 169.25896 | 23155 ft | 438 kts | 253° |
| 2026-04-28 13:38 | -44.84143 | 169.21834 | 22362 ft | 432 kts | 253° |
| 2026-04-28 13:38 | -44.85048 | 169.17822 | 21596 ft | 427 kts | 253° |
| 2026-04-28 13:38 | -44.85955 | 169.13805 | 20846 ft | 422 kts | 253° |
| 2026-04-28 13:38 | -44.86839 | 169.09882 | 20115 ft | 417 kts | 253° |
| 2026-04-28 13:39 | -44.87710 | 169.06012 | 19396 ft | 413 kts | 253° |
| 2026-04-28 13:39 | -44.88569 | 169.02170 | 18697 ft | 408 kts | 254° |
| 2026-04-28 13:39 | -44.89414 | 168.98368 | 17936 ft | 404 kts | 254° |
| 2026-04-28 13:39 | -44.90245 | 168.94600 | 16999 ft | 403 kts | 255° |
| 2026-04-28 13:40 | -44.90785 | 168.90728 | 16056 ft | 402 kts | 265° |
| 2026-04-28 13:40 | -44.90855 | 168.86799 | 15283 ft | 399 kts | 273° |
| 2026-04-28 13:40 | -44.90719 | 168.82905 | 14541 ft | 396 kts | 273° |
| 2026-04-28 13:40 | -44.90587 | 168.79049 | 13835 ft | 393 kts | 273° |
| 2026-04-28 13:41 | -44.90459 | 168.75215 | 13113 ft | 389 kts | 273° |
| 2026-04-28 13:41 | -44.90334 | 168.71421 | 12409 ft | 385 kts | 273° |
| 2026-04-28 13:41 | -44.90341 | 168.67674 | 11723 ft | 381 kts | 265° |
| 2026-04-28 13:41 | -44.90846 | 168.64029 | 11049 ft | 377 kts | 254° |
| 2026-04-28 13:42 | -44.91851 | 168.60676 | 10769 ft | 363 kts | 245° |
| 2026-04-28 13:42 | -44.92969 | 168.57582 | 10650 ft | 345 kts | 245° |
| 2026-04-28 13:42 | -44.94016 | 168.54623 | 10529 ft | 329 kts | 245° |
| 2026-04-28 13:42 | -44.95011 | 168.51786 | 10351 ft | 318 kts | 245° |
| 2026-04-28 13:43 | -44.95979 | 168.49012 | 10116 ft | 312 kts | 246° |
| 2026-04-28 13:43 | -44.96917 | 168.46326 | 10026 ft | 298 kts | 246° |
| 2026-04-28 13:43 | -44.97811 | 168.43771 | 10027 ft | 283 kts | 246° |
| 2026-04-28 13:43 | -44.98667 | 168.41328 | 10024 ft | 274 kts | 246° |
| 2026-04-28 13:44 | -44.99513 | 168.38917 | 10032 ft | 273 kts | 246° |
| 2026-04-28 13:44 | -45.00355 | 168.36511 | 10032 ft | 274 kts | 245° |
| 2026-04-28 13:44 | -45.01202 | 168.34095 | 10029 ft | 274 kts | 246° |
| 2026-04-28 13:44 | -45.02047 | 168.31683 | 10033 ft | 274 kts | 246° |
| 2026-04-28 13:45 | -45.03051 | 168.29392 | 9924 ft | 276 kts | 234° |
| 2026-04-28 13:45 | -45.04417 | 168.27481 | 9790 ft | 278 kts | 221° |
| 2026-04-28 13:45 | -45.06080 | 168.26051 | 9671 ft | 283 kts | 208° |
| 2026-04-28 13:45 | -45.07971 | 168.25195 | 9541 ft | 288 kts | 194° |
| 2026-04-28 13:46 | -45.09958 | 168.25006 | 9404 ft | 286 kts | 180° |
| 2026-04-28 13:46 | -45.11930 | 168.25499 | 9275 ft | 283 kts | 166° |
| 2026-04-28 13:46 | -45.13715 | 168.26647 | 9018 ft | 285 kts | 149° |
| 2026-04-28 13:46 | -45.15176 | 168.28540 | 8598 ft | 284 kts | 128° |
| 2026-04-28 13:47 | -45.16118 | 168.30960 | 8218 ft | 280 kts | 108° |
| 2026-04-28 13:47 | -45.16479 | 168.33603 | 7810 ft | 267 kts | 89° |
| 2026-04-28 13:47 | -45.16276 | 168.36168 | 7428 ft | 261 kts | 70° |
| 2026-04-28 13:47 | -45.15584 | 168.38497 | 7028 ft | 252 kts | 56° |
| 2026-04-28 13:48 | -45.14769 | 168.40657 | 6682 ft | 246 kts | 57° |
| 2026-04-28 13:48 | -45.13986 | 168.42752 | 6342 ft | 235 kts | 56° |
| 2026-04-28 13:48 | -45.13227 | 168.44781 | 6018 ft | 232 kts | 57° |
| 2026-04-28 13:48 | -45.12472 | 168.46791 | 5669 ft | 231 kts | 58° |
| 2026-04-28 13:49 | -45.11722 | 168.48789 | 5276 ft | 228 kts | 58° |
| 2026-04-28 13:49 | -45.10984 | 168.50757 | 4646 ft | 224 kts | 58° |
| 2026-04-28 13:49 | -45.10260 | 168.52690 | 4045 ft | 220 kts | 59° |
| 2026-04-28 13:49 | -45.09545 | 168.54595 | 3599 ft | 215 kts | 59° |
| 2026-04-28 13:50 | -45.08868 | 168.56393 | 3444 ft | 198 kts | 59° |
| 2026-04-28 13:50 | -45.08250 | 168.58042 | 3341 ft | 185 kts | 60° |
| 2026-04-28 13:50 | -45.07653 | 168.59631 | 3241 ft | 182 kts | 60° |
| 2026-04-28 13:50 | -45.07060 | 168.61209 | 3166 ft | 181 kts | 60° |
| 2026-04-28 13:51 | -45.06504 | 168.62697 | 3104 ft | 159 kts | 60° |
| 2026-04-28 13:51 | -45.05997 | 168.64047 | 2849 ft | 151 kts | 60° |
| 2026-04-28 13:51 | -45.05510 | 168.65333 | 2637 ft | 147 kts | 60° |
| 2026-04-28 13:51 | -45.05019 | 168.66588 | 2442 ft | 145 kts | 57° |
| 2026-04-28 13:52 | -45.04432 | 168.67737 | 2242 ft | 144 kts | 47° |
| 2026-04-28 13:52 | -45.03735 | 168.68739 | 2038 ft | 143 kts | 40° |
| 2026-04-28 13:52 | -45.03062 | 168.69763 | 1821 ft | 142 kts | 49° |
| 2026-04-28 13:52 | -45.02528 | 168.70938 | 1599 ft | 142 kts | 63° |
| 2026-04-28 13:53 | -45.02212 | 168.72263 | 1384 ft | 142 kts | 73° |
| 2026-04-28 13:53 | -45.01990 | 168.73624 | 1194 ft | 142 kts | 76° |
| 2026-04-28 13:53 | -45.01811 | 168.74765 | 1169 ft | 81 kts | 77° |
| 2026-04-28 13:53 | -45.01706 | 168.75444 | 1179 ft | 66 kts | 78° |
| 2026-04-28 13:54 | -45.01654 | 168.75757 | 1181 ft | 11 kts | 63° |
| 2026-04-28 13:54 | -45.01648 | 168.75827 | 1181 ft | 5 kts | 169° |
| 2026-04-28 13:54 | -45.01657 | 168.75783 | 1179 ft | 6 kts | 267° |
| 2026-04-28 13:54 | -45.01669 | 168.75677 | 1176 ft | 15 kts | 256° |
| 2026-04-28 13:55 | -45.01699 | 168.75491 | 1180 ft | 24 kts | 256° |
| 2026-04-28 13:55 | -45.01740 | 168.75221 | 1173 ft | 31 kts | 262° |
| 2026-04-28 13:55 | -45.01780 | 168.74922 | 1169 ft | 32 kts | 259° |
| 2026-04-28 13:55 | -45.01830 | 168.74612 | 1173 ft | 33 kts | 256° |
| 2026-04-28 13:56 | -45.01879 | 168.74336 | 1179 ft | 22 kts | 256° |
| 2026-04-28 13:56 | -45.01913 | 168.74128 | 1175 ft | 15 kts | 258° |
| 2026-04-28 13:56 | -45.01961 | 168.74045 | 1174 ft | 12 kts | 201° |
| 2026-04-28 13:56 | -45.02040 | 168.74001 | 1173 ft | 10 kts | 199° |
| 2026-04-28 13:57 | -45.02097 | 168.73971 | 1170 ft | 6 kts | 206° |
| 2026-04-28 13:57 | -45.02112 | 168.73961 | 1170 ft | 0 kts | 206° |